Time;durP1;ratioP1;P1;durP2;ratioP2;P2;SDS_P1;SDS_P2;PMS_P1;PMS_P2;Temp;Humidity;BMP_temperature;BMP_pressure;BME280_temperature;BME280_humidity;BME280_pressure;Samples;Min_cycle;Max_cycle;Signal;HPM_P1;HPM_P2
2023/01/03 00:01:31;;;;;;;36.23;18.37;;;6.60;99.90;;;;;;5030050;28;20034;-82
2023/01/03 00:03:58;;;;;;;34.40;19.67;;;6.50;99.90;;;;;;5029750;28;20017;-82
2023/01/03 00:06:26;;;;;;;35.73;19.40;;;6.50;99.90;;;;;;5013105;28;20032;-82
2023/01/03 00:08:53;;;;;;;38.10;18.83;;;6.50;99.90;;;;;;5029436;28;20026;-82
2023/01/03 00:14:12;;;;;;;39.20;19.13;;;6.50;99.90;;;;;;5014202;28;20033;-82
2023/01/03 00:16:38;;;;;;;34.27;19.37;;;6.50;99.90;;;;;;5029344;28;20014;-82
2023/01/03 00:19:10;;;;;;;38.10;20.13;;;6.50;99.90;;;;;;5029018;28;20076;-82
2023/01/03 00:21:36;;;;;;;35.30;20.37;;;6.50;99.90;;;;;;5029024;28;20028;-82
2023/01/03 00:24:02;;;;;;;38.07;20.20;;;6.50;99.90;;;;;;4996449;28;20022;-82
2023/01/03 00:26:28;;;;;;;38.13;21.17;;;6.50;99.90;;;;;;5029063;28;20049;-82
2023/01/03 00:28:54;;;;;;;37.47;20.27;;;6.60;99.90;;;;;;5012398;28;20029;-82
2023/01/03 00:31:19;;;;;;;34.50;19.67;;;6.60;99.90;;;;;;5028960;28;20030;-82
2023/01/03 00:33:45;;;;;;;37.93;18.90;;;6.50;99.90;;;;;;5012941;28;20188;-82
2023/01/03 00:36:11;;;;;;;33.87;18.73;;;6.50;99.90;;;;;;4996122;28;20030;-82
2023/01/03 00:38:37;;;;;;;30.73;18.27;;;6.50;99.90;;;;;;5028866;28;20063;-82
2023/01/03 00:41:15;;;;;;;34.80;18.43;;;6.50;99.90;;;;;;5028916;28;20018;-82
2023/01/03 00:43:43;;;;;;;33.53;18.37;;;6.40;99.90;;;;;;5029103;28;20021;-81
2023/01/03 00:46:11;;;;;;;39.43;19.33;;;6.40;99.90;;;;;;5028661;28;20493;-82
2023/01/03 00:48:37;;;;;;;36.73;18.97;;;6.40;99.90;;;;;;5028603;28;20025;-82
2023/01/03 00:51:09;;;;;;;38.77;19.43;;;6.30;99.90;;;;;;5012247;28;20022;-82
2023/01/03 00:53:36;;;;;;;33.53;17.83;;;6.30;99.90;;;;;;5028672;28;20022;-82
2023/01/03 00:56:07;;;;;;;34.53;18.10;;;6.20;99.90;;;;;;5028634;28;20497;-82
2023/01/03 00:58:33;;;;;;;37.37;19.27;;;6.20;99.90;;;;;;5013433;28;20439;-82
2023/01/03 01:01:10;;;;;;;36.20;18.50;;;6.20;99.90;;;;;;5012445;28;20471;-82
2023/01/03 01:03:38;;;;;;;39.03;21.33;;;6.20;99.90;;;;;;5013355;28;20406;-82
2023/01/03 01:06:29;;;;;;;37.87;20.13;;;6.20;99.90;;;;;;5028553;28;20386;-82
2023/01/03 01:08:57;;;;;;;36.97;20.27;;;6.10;99.90;;;;;;5011874;28;20033;-82
2023/01/03 01:11:24;;;;;;;42.70;21.87;;;6.20;99.90;;;;;;5012115;28;20502;-82
2023/01/03 01:13:50;;;;;;;39.70;22.70;;;6.30;99.90;;;;;;5028649;28;20383;-82
2023/01/03 01:16:19;;;;;;;42.07;22.50;;;6.30;99.90;;;;;;5028323;28;20060;-82
2023/01/03 01:18:47;;;;;;;43.57;23.00;;;6.40;99.90;;;;;;5011982;28;20124;-82
2023/01/03 01:21:15;;;;;;;40.73;22.30;;;6.40;99.90;;;;;;5028506;28;20022;-82
2023/01/03 01:23:42;;;;;;;42.40;23.20;;;6.40;99.90;;;;;;5028907;28;20488;-83
2023/01/03 01:26:11;;;;;;;44.97;23.90;;;6.40;99.90;;;;;;5012264;28;20030;-82
2023/01/03 01:28:36;;;;;;;43.37;22.90;;;6.50;99.90;;;;;;5028303;28;20125;-81
2023/01/03 01:31:04;;;;;;;41.20;21.60;;;6.50;99.90;;;;;;5031292;28;20120;-81
2023/01/03 01:33:32;;;;;;;40.03;22.47;;;6.50;99.90;;;;;;5032041;28;20105;-81
2023/01/03 01:36:03;;;;;;;35.80;22.43;;;6.50;99.90;;;;;;4999405;28;20026;-82
2023/01/03 01:38:29;;;;;;;37.67;22.00;;;6.40;99.90;;;;;;5032210;28;20018;-81
2023/01/03 01:40:55;;;;;;;37.43;22.07;;;6.50;99.90;;;;;;5015797;28;20152;-81
2023/01/03 01:46:21;;;;;;;37.30;21.00;;;6.30;99.90;;;;;;5017091;28;20501;-81
2023/01/03 01:48:54;;;;;;;35.60;20.60;;;6.30;99.90;;;;;;5016959;28;20489;-81
2023/01/03 01:51:21;;;;;;;37.97;22.10;;;6.20;99.90;;;;;;5032520;28;20026;-81
2023/01/03 01:53:48;;;;;;;35.83;20.33;;;6.20;99.90;;;;;;5033795;28;20370;-81
2023/01/03 01:56:28;;;;;;;36.93;20.73;;;6.10;99.90;;;;;;5034496;28;20030;-81
2023/01/03 01:58:54;;;;;;;41.53;22.27;;;6.10;99.90;;;;;;5034911;28;20094;-80
2023/01/03 02:01:21;;;;;;;40.67;22.03;;;6.00;99.90;;;;;;5019711;28;20029;-81
2023/01/03 02:03:55;;;;;;;39.27;22.13;;;6.00;99.90;;;;;;5017580;28;20482;-81
2023/01/03 02:06:22;;;;;;;41.97;22.15;;;6.10;99.90;;;;;;5016857;28;20030;-80
2023/01/03 02:08:49;;;;;;;42.83;22.33;;;5.90;99.90;;;;;;5032049;28;20510;-81
2023/01/03 02:11:36;;;;;;;46.17;22.97;;;5.90;99.90;;;;;;5015272;28;20478;-81
2023/01/03 02:14:13;;;;;;;39.90;22.77;;;5.90;99.90;;;;;;5015063;28;20079;-81
2023/01/03 02:17:06;;;;;;;41.10;22.47;;;5.90;99.90;;;;;;5034488;28;20030;-83
2023/01/03 02:19:37;;;;;;;40.13;21.57;;;5.90;99.90;;;;;;5018729;28;20393;-81
2023/01/03 02:22:28;;;;;;;44.00;23.57;;;5.90;99.90;;;;;;5034076;28;20035;-81
2023/01/03 02:25:15;;;;;;;41.00;23.30;;;5.90;99.90;;;;;;5033692;28;20037;-81
2023/01/03 02:28:08;;;;;;;43.67;24.70;;;6.00;99.90;;;;;;5017718;28;20091;-81
2023/01/03 02:30:41;;;;;;;47.07;26.07;;;6.00;99.90;;;;;;5032982;28;20490;-81
2023/01/03 02:33:13;;;;;;;51.78;27.27;;;6.00;99.90;;;;;;5031146;28;20065;-81
2023/01/03 02:35:44;;;;;;;52.27;28.03;;;6.10;99.90;;;;;;5030978;28;20036;-81
2023/01/03 02:38:21;;;;;;;47.67;26.47;;;6.10;99.90;;;;;;5031090;28;20030;-81
2023/01/03 02:41:00;;;;;;;47.63;26.53;;;6.10;99.90;;;;;;5030406;28;20026;-76
2023/01/03 02:43:41;;;;;;;43.50;26.23;;;6.20;99.90;;;;;;5030112;28;20076;-77
2023/01/03 02:46:15;;;;;;;48.57;25.97;;;6.20;99.90;;;;;;5014067;28;20030;-76
2023/01/03 02:48:56;;;;;;;44.07;26.30;;;6.20;99.90;;;;;;5030426;28;20113;-76
2023/01/03 02:51:27;;;;;;;44.63;25.80;;;6.20;99.90;;;;;;5030830;28;20095;-76
2023/01/03 02:53:55;;;;;;;43.33;24.40;;;6.20;99.90;;;;;;5030499;28;20466;-75
2023/01/03 02:56:26;;;;;;;42.37;25.73;;;6.20;99.90;;;;;;5015109;28;20029;-76
2023/01/03 02:59:03;;;;;;;45.07;24.73;;;6.10;99.90;;;;;;5030459;28;20429;-76
2023/01/03 03:01:29;;;;;;;42.43;25.00;;;6.20;99.90;;;;;;5030257;28;20108;-75
2023/01/03 03:03:57;;;;;;;45.33;26.97;;;6.10;99.90;;;;;;5015093;28;20026;-77
2023/01/03 03:06:46;;;;;;;43.93;27.20;;;6.20;99.90;;;;;;5013651;28;20048;-77
2023/01/03 03:09:12;;;;;;;46.80;27.93;;;6.20;99.90;;;;;;5015268;28;20034;-78
2023/01/03 03:14:32;;;;;;;46.13;27.17;;;6.10;99.90;;;;;;5015149;28;20041;-78
2023/01/03 03:17:03;;;;;;;46.10;28.20;;;6.30;99.90;;;;;;5013534;28;20021;-77
2023/01/03 03:25:50;;;;;;;47.30;28.33;;;6.10;99.90;;;;;;5014920;28;20041;-77
2023/01/03 03:28:33;;;;;;;45.03;26.53;;;6.00;99.90;;;;;;5029827;28;20026;-77
2023/01/03 03:31:07;;;;;;;46.63;25.90;;;5.90;99.90;;;;;;5014565;28;20104;-77
2023/01/03 03:33:38;;;;;;;52.83;27.20;;;5.90;99.90;;;;;;5014532;28;20018;-77
2023/01/03 03:36:34;;;;;;;52.33;27.97;;;5.90;99.90;;;;;;5030119;28;20024;-82
2023/01/03 03:39:00;;;;;;;48.40;27.00;;;5.80;99.90;;;;;;5029809;28;20026;-81
2023/01/03 03:47:44;;;;;;;40.87;25.40;;;5.70;99.90;;;;;;5014864;28;20121;-81
2023/01/03 03:50:25;;;;;;;48.57;27.80;;;5.70;99.90;;;;;;5013079;28;20026;-81
2023/01/03 03:52:57;;;;;;;44.70;28.77;;;5.60;99.90;;;;;;5029306;28;20051;-82
2023/01/03 03:55:29;;;;;;;43.33;27.03;;;5.60;99.90;;;;;;5029736;28;20140;-81
2023/01/03 03:58:10;;;;;;;43.13;27.83;;;5.60;99.90;;;;;;5029679;28;20109;-81
2023/01/03 04:00:40;;;;;;;47.70;26.30;;;5.50;99.90;;;;;;5029613;28;20057;-81
2023/01/03 04:03:09;;;;;;;43.67;26.47;;;5.50;99.90;;;;;;5012946;28;20030;-81
2023/01/03 04:05:42;;;;;;;42.60;27.20;;;5.50;99.90;;;;;;5014181;28;20076;-81
2023/01/03 04:08:09;;;;;;;42.22;26.77;;;5.40;99.90;;;;;;5029395;28;20026;-81
2023/01/03 04:10:35;;;;;;;41.67;25.60;;;5.40;99.90;;;;;;5013056;28;20516;-81
2023/01/03 04:13:01;;;;;;;39.83;26.33;;;5.40;99.90;;;;;;5012725;28;20076;-81
2023/01/03 04:15:27;;;;;;;42.20;25.60;;;5.40;99.90;;;;;;4996714;28;20417;-81
2023/01/03 04:17:52;;;;;;;43.53;24.30;;;5.40;99.90;;;;;;5029314;28;20136;-81
2023/01/03 04:20:18;;;;;;;38.17;25.03;;;5.30;99.90;;;;;;5003576;28;20037;-82
2023/01/03 04:22:44;;;;;;;38.10;24.57;;;5.40;99.90;;;;;;5032228;28;20076;-82
2023/01/03 04:25:10;;;;;;;40.40;24.77;;;5.30;99.90;;;;;;5015833;28;20496;-82
2023/01/03 04:27:35;;;;;;;42.27;24.60;;;5.20;99.90;;;;;;5015697;28;20382;-82
2023/01/03 04:30:06;;;;;;;30.57;20.70;;;5.20;99.90;;;;;;5032183;28;20032;-82
2023/01/03 04:32:32;;;;;;;38.70;23.03;;;5.20;99.90;;;;;;5016106;28;20032;-82
2023/01/03 04:34:57;;;;;;;33.40;20.57;;;5.20;99.90;;;;;;5032347;28;20030;-82
2023/01/03 04:37:23;;;;;;;35.37;22.20;;;5.10;99.90;;;;;;5032306;28;20103;-82
2023/01/03 04:39:49;;;;;;;34.37;21.87;;;5.10;99.90;;;;;;5015977;28;20462;-81
2023/01/03 04:44:58;;;;;;;37.05;20.45;;;5.10;99.90;;;;;;5032461;28;20390;-78
2023/01/03 04:47:24;;;;;;;36.00;20.70;;;5.00;99.90;;;;;;5015481;28;20029;-77
2023/01/03 04:49:52;;;;;;;36.47;21.87;;;5.00;99.90;;;;;;5015443;28;20034;-78
2023/01/03 04:52:17;;;;;;;33.87;19.60;;;4.90;99.90;;;;;;5015822;28;20120;-78
2023/01/03 04:54:43;;;;;;;35.73;20.27;;;4.90;99.90;;;;;;5015676;28;20056;-78
2023/01/03 04:57:09;;;;;;;32.73;19.40;;;4.90;99.90;;;;;;5015573;28;20155;-77
2023/01/03 04:59:35;;;;;;;34.50;19.60;;;4.90;99.90;;;;;;5031745;28;20033;-78
2023/01/03 05:02:02;;;;;;;37.23;19.93;;;4.80;99.90;;;;;;5031598;28;20128;-78
2023/01/03 05:04:28;;;;;;;37.37;20.77;;;4.80;99.90;;;;;;5015451;28;20025;-78
2023/01/03 05:06:54;;;;;;;31.80;20.30;;;4.80;99.90;;;;;;5019472;28;20075;-75
2023/01/03 05:09:20;;;;;;;34.37;19.30;;;4.80;99.90;;;;;;5036685;28;20026;-78
2023/01/03 05:11:46;;;;;;;35.63;19.03;;;4.80;99.90;;;;;;5019690;28;20025;-78
2023/01/03 05:14:11;;;;;;;31.10;18.97;;;4.80;99.90;;;;;;5035784;28;20474;-78
2023/01/03 05:16:37;;;;;;;33.67;18.60;;;4.70;99.90;;;;;;5035970;28;20481;-78
2023/01/03 05:19:03;;;;;;;31.57;18.37;;;4.70;99.90;;;;;;5019472;28;20036;-78
2023/01/03 05:27:00;;;;;;;30.47;17.73;;;4.60;99.90;;;;;;5036816;28;20040;-78
2023/01/03 05:29:26;;;;;;;31.00;18.90;;;4.60;99.90;;;;;;5036535;28;20025;-78
2023/01/03 05:31:52;;;;;;;35.33;17.87;;;4.60;99.90;;;;;;5018784;28;20392;-78
2023/01/03 05:34:18;;;;;;;32.50;18.60;;;4.60;99.90;;;;;;5035401;28;20059;-78
2023/01/03 05:36:44;;;;;;;31.17;17.87;;;4.60;99.90;;;;;;5018682;28;20029;-77
2023/01/03 05:39:10;;;;;;;29.63;17.17;;;4.60;99.90;;;;;;5035213;28;20036;-78
2023/01/03 05:44:20;;;;;;;30.20;17.27;;;4.50;99.90;;;;;;5036660;28;20039;-77
2023/01/03 05:46:46;;;;;;;33.23;18.03;;;4.50;99.90;;;;;;5035199;28;20052;-78
2023/01/03 05:49:12;;;;;;;29.70;18.13;;;4.50;99.90;;;;;;5034990;28;20030;-78
2023/01/03 05:51:37;;;;;;;29.30;17.33;;;4.50;99.90;;;;;;5035200;28;20033;-78
2023/01/03 05:54:03;;;;;;;33.80;16.90;;;4.50;99.90;;;;;;5035082;28;20039;-78
2023/01/03 05:56:31;;;;;;;27.97;17.07;;;4.50;99.90;;;;;;5018417;28;20544;-78
2023/01/03 05:58:57;;;;;;;31.70;16.93;;;4.40;99.90;;;;;;5035007;28;20038;-78
2023/01/03 06:01:25;;;;;;;33.57;18.07;;;4.40;99.90;;;;;;5018232;28;20485;-78
2023/01/03 06:03:51;;;;;;;30.27;16.20;;;4.40;99.90;;;;;;5035090;28;20087;-78
2023/01/03 06:06:17;;;;;;;30.03;18.30;;;4.40;99.90;;;;;;5034806;28;20033;-78
2023/01/03 06:08:43;;;;;;;31.13;17.67;;;4.40;99.90;;;;;;5031803;28;20061;-77
2023/01/03 06:11:12;;;;;;;31.80;18.50;;;4.40;99.90;;;;;;5022293;28;20480;-78
2023/01/03 06:13:38;;;;;;;29.33;17.53;;;4.40;99.90;;;;;;5034952;28;20021;-77
2023/01/03 06:18:54;;;;;;;28.30;16.07;;;4.40;99.90;;;;;;5033465;28;20049;-78
2023/01/03 06:21:19;;;;;;;30.57;17.83;;;4.40;99.90;;;;;;5011363;28;20025;-81
2023/01/03 06:23:46;;;;;;;31.27;18.20;;;4.40;99.90;;;;;;4997172;28;20069;-81
2023/01/03 06:26:16;;;;;;;37.63;18.60;;;4.40;99.90;;;;;;5014156;28;20025;-81
2023/01/03 06:28:42;;;;;;;30.40;17.73;;;4.50;99.90;;;;;;5014499;28;20088;-81
2023/01/03 06:31:08;;;;;;;32.50;18.23;;;4.60;99.90;;;;;;4998278;28;20026;-81
2023/01/03 06:33:34;;;;;;;33.57;19.33;;;4.60;99.90;;;;;;5014614;28;20124;-81
2023/01/03 06:36:12;;;;;;;34.97;18.90;;;4.60;99.90;;;;;;4998147;28;20459;-80
2023/01/03 06:38:38;;;;;;;31.73;18.10;;;4.70;99.90;;;;;;5014383;28;20026;-80
2023/01/03 06:41:04;;;;;;;40.47;18.63;;;4.70;99.90;;;;;;5014322;28;20087;-81
2023/01/03 06:43:30;;;;;;;36.30;17.87;;;4.70;99.90;;;;;;4997800;28;20026;-80
2023/01/03 06:54:17;;;;;;;28.90;16.30;;;4.90;99.90;;;;;;5031601;28;20040;-80
2023/01/03 06:56:43;;;;;;;27.83;15.93;;;4.90;99.90;;;;;;5033077;28;20018;-80
2023/01/03 06:59:08;;;;;;;33.83;15.77;;;4.90;99.90;;;;;;5031839;28;20080;-80
2023/01/03 07:01:34;;;;;;;26.33;16.37;;;4.90;99.90;;;;;;5032881;28;20083;-80
2023/01/03 07:04:01;;;;;;;27.93;16.40;;;4.90;99.90;;;;;;5016637;28;20651;-80
2023/01/03 07:06:27;;;;;;;32.00;17.23;;;4.80;99.90;;;;;;5033626;28;20025;-81
2023/01/03 07:08:54;;;;;;;28.20;16.43;;;4.90;99.90;;;;;;5017279;28;20029;-80
2023/01/03 07:11:22;;;;;;;30.87;17.20;;;4.90;99.90;;;;;;5033746;28;20053;-80
2023/01/03 07:13:57;;;;;;;26.67;15.93;;;5.00;99.90;;;;;;5021801;28;20048;-79
2023/01/03 07:16:27;;;;;;;28.03;16.23;;;5.00;99.90;;;;;;5043423;28;20029;-80
2023/01/03 07:18:54;;;;;;;31.03;16.37;;;5.00;99.90;;;;;;5040113;28;20030;-80
2023/01/03 07:21:20;;;;;;;27.73;15.57;;;4.90;99.90;;;;;;5036780;28;20470;-80
2023/01/03 07:23:46;;;;;;;26.60;14.47;;;5.10;99.90;;;;;;5033989;28;20025;-80
2023/01/03 07:26:12;;;;;;;27.77;15.53;;;5.00;99.90;;;;;;5017122;28;20076;-80
2023/01/03 07:28:37;;;;;;;32.23;16.17;;;5.00;99.90;;;;;;5016679;28;20129;-79
2023/01/03 07:31:05;;;;;;;28.73;14.77;;;5.00;99.90;;;;;;5017216;28;20028;-81
2023/01/03 07:33:31;;;;;;;24.00;14.57;;;5.00;99.90;;;;;;5016876;28;20040;-80
2023/01/03 07:36:06;;;;;;;28.93;16.27;;;4.90;99.90;;;;;;5033120;28;20048;-81
2023/01/03 07:38:32;;;;;;;28.53;16.30;;;5.00;99.90;;;;;;5033220;28;20022;-81
2023/01/03 07:41:00;;;;;;;28.17;16.30;;;5.00;99.90;;;;;;5033303;28;20086;-81
2023/01/03 07:43:38;;;;;;;31.00;18.33;;;5.10;99.90;;;;;;5016645;28;20029;-81
2023/01/03 07:46:23;;;;;;;33.90;17.53;;;5.10;99.90;;;;;;5032760;28;20022;-81
2023/01/03 07:48:54;;;;;;;29.63;16.63;;;5.10;99.90;;;;;;5032965;28;20032;-80
2023/01/03 07:51:21;;;;;;;33.53;17.03;;;5.20;99.90;;;;;;5032316;28;20076;-80
2023/01/03 07:53:51;;;;;;;30.30;17.80;;;5.20;99.90;;;;;;5032419;28;20033;-80
2023/01/03 07:56:18;;;;;;;30.77;16.70;;;5.20;99.90;;;;;;5015763;28;20022;-80
2023/01/03 07:58:45;;;;;;;30.00;17.73;;;5.30;99.90;;;;;;5032270;28;20064;-80
2023/01/03 08:01:14;;;;;;;29.17;17.33;;;5.30;99.90;;;;;;5032334;28;20018;-80
2023/01/03 08:03:40;;;;;;;30.63;17.63;;;5.30;99.90;;;;;;5031797;28;20017;-82
2023/01/03 08:06:17;;;;;;;27.73;17.27;;;5.40;99.90;;;;;;5032065;28;20131;-82
2023/01/03 08:14:21;;;;;;;34.55;16.85;;;5.40;99.90;;;;;;5033341;28;20155;-82
2023/01/03 08:16:46;;;;;;;36.00;17.47;;;5.50;99.90;;;;;;5032008;28;20162;-82
2023/01/03 08:19:14;;;;;;;30.97;17.37;;;5.50;99.90;;;;;;5032453;28;20525;-82
2023/01/03 08:21:46;;;;;;;27.80;17.10;;;5.60;99.90;;;;;;5016160;28;20049;-82
2023/01/03 08:24:11;;;;;;;30.23;17.20;;;5.60;99.90;;;;;;5032788;28;20021;-82
2023/01/03 08:26:37;;;;;;;27.73;17.13;;;5.60;99.90;;;;;;5032293;28;20028;-82
2023/01/03 08:29:14;;;;;;;29.67;17.33;;;5.60;99.90;;;;;;5032495;28;20429;-83
2023/01/03 08:31:47;;;;;;;29.63;16.47;;;5.60;99.90;;;;;;5015960;28;20018;-82
2023/01/03 08:34:16;;;;;;;29.90;16.47;;;5.60;99.90;;;;;;5032598;28;20040;-82
2023/01/03 08:36:49;;;;;;;30.47;16.87;;;5.70;99.90;;;;;;5032318;28;20060;-82
2023/01/03 08:39:21;;;;;;;28.23;16.77;;;5.70;99.90;;;;;;5031646;28;20021;-82
2023/01/03 08:42:01;;;;;;;27.13;15.13;;;5.70;99.90;;;;;;5016260;28;20022;-82
2023/01/03 08:44:29;;;;;;;27.10;15.43;;;5.80;99.90;;;;;;5032433;28;20112;-82
2023/01/03 08:47:01;;;;;;;27.77;16.17;;;5.80;99.90;;;;;;5015826;28;20124;-82
2023/01/03 08:49:28;;;;;;;22.00;14.37;;;5.90;99.90;;;;;;5033688;28;20025;-82
2023/01/03 08:51:54;;;;;;;25.13;15.33;;;6.00;99.90;;;;;;5032030;28;20022;-82
2023/01/03 08:54:19;;;;;;;22.93;13.40;;;6.00;99.90;;;;;;5032145;28;20407;-82
2023/01/03 08:56:45;;;;;;;23.27;13.07;;;6.10;99.90;;;;;;5032222;28;20022;-83
2023/01/03 08:59:11;;;;;;;24.37;13.17;;;6.10;99.90;;;;;;5032035;28;20028;-82
2023/01/03 09:01:37;;;;;;;26.93;13.77;;;6.20;99.90;;;;;;5032146;28;20029;-82
2023/01/03 09:04:05;;;;;;;22.43;13.40;;;6.20;99.90;;;;;;5032100;28;20032;-83
2023/01/03 09:06:31;;;;;;;24.67;13.73;;;6.30;99.90;;;;;;5032085;28;20056;-83
2023/01/03 09:08:56;;;;;;;22.13;13.40;;;6.30;99.90;;;;;;5031973;28;20025;-83
2023/01/03 09:11:25;;;;;;;24.23;13.13;;;6.30;99.90;;;;;;5032171;28;20052;-83
2023/01/03 09:13:53;;;;;;;19.67;12.27;;;6.40;99.90;;;;;;5031959;28;20041;-83
2023/01/03 09:16:27;;;;;;;22.70;12.70;;;6.40;99.90;;;;;;5031939;28;20112;-83
2023/01/03 09:18:52;;;;;;;14.13;9.00;;;6.50;99.90;;;;;;5031789;28;20391;-83
2023/01/03 09:21:21;;;;;;;25.97;13.37;;;6.50;99.90;;;;;;5031777;28;20021;-83
2023/01/03 09:23:47;;;;;;;24.87;13.00;;;6.60;99.90;;;;;;5032043;28;20440;-83
2023/01/03 09:26:13;;;;;;;23.93;13.63;;;6.60;99.90;;;;;;5032294;28;20025;-83
2023/01/03 09:28:38;;;;;;;22.80;11.87;;;6.60;99.90;;;;;;5032131;28;20026;-82
2023/01/03 09:31:04;;;;;;;21.47;12.80;;;6.70;99.90;;;;;;5031710;28;20017;-83
2023/01/03 09:33:30;;;;;;;24.43;12.17;;;6.80;99.90;;;;;;5031887;28;20381;-82
2023/01/03 09:35:59;;;;;;;22.17;12.27;;;6.80;99.90;;;;;;5031918;28;20025;-82
2023/01/03 09:38:24;;;;;;;25.73;13.13;;;6.80;99.90;;;;;;5032847;28;20014;-82
2023/01/03 09:41:20;;;;;;;24.47;12.87;;;6.80;99.90;;;;;;5031631;28;20523;-83
2023/01/03 09:43:47;;;;;;;22.07;13.20;;;7.00;99.90;;;;;;5030999;28;20498;-83
2023/01/03 09:46:20;;;;;;;27.20;13.47;;;6.90;99.90;;;;;;5031859;28;20028;-81
2023/01/03 09:48:47;;;;;;;24.67;15.20;;;7.10;99.90;;;;;;5031559;28;20021;-84
2023/01/03 10:05:52;;;;;;;34.07;16.43;;;7.00;99.90;;;;;;5036548;28;20103;-81
2023/01/03 10:08:27;;;;;;;29.00;15.77;;;7.10;99.90;;;;;;5034804;28;20428;-81
2023/01/03 10:11:20;;;;;;;29.30;16.63;;;7.10;99.90;;;;;;5034785;28;20103;-81
2023/01/03 10:14:01;;;;;;;25.00;15.10;;;7.10;99.90;;;;;;5034874;28;20454;-81
2023/01/03 10:16:48;;;;;;;28.80;15.63;;;7.20;99.90;;;;;;5034909;28;20032;-81
2023/01/03 10:19:42;;;;;;;28.80;15.00;;;7.30;99.90;;;;;;5034703;28;20037;-81
2023/01/03 10:22:28;;;;;;;27.80;13.57;;;7.30;99.90;;;;;;5034416;28;20044;-82
2023/01/03 10:25:03;;;;;;;24.53;15.27;;;7.30;99.90;;;;;;5034712;28;20079;-82
2023/01/03 10:27:33;;;;;;;26.10;13.83;;;7.40;99.90;;;;;;5034545;28;20486;-82
2023/01/03 10:30:01;;;;;;;27.17;14.37;;;7.40;99.90;;;;;;5034637;28;20034;-82
2023/01/03 10:32:33;;;;;;;21.13;12.70;;;7.40;99.90;;;;;;5034375;28;20079;-81
2023/01/03 10:35:02;;;;;;;23.53;14.17;;;7.50;99.90;;;;;;5034441;28;20033;-81
2023/01/03 10:37:28;;;;;;;23.17;13.30;;;7.50;99.90;;;;;;5035752;28;20029;-82
2023/01/03 10:40:02;;;;;;;26.17;13.33;;;7.50;99.90;;;;;;5034439;28;20128;-82
2023/01/03 10:42:31;;;;;;;25.70;13.97;;;7.60;99.90;;;;;;5034341;28;20036;-82
2023/01/03 10:45:02;;;;;;;21.97;12.47;;;7.60;99.90;;;;;;5034271;28;20109;-82
2023/01/03 10:47:28;;;;;;;23.33;13.30;;;7.60;99.90;;;;;;5035641;28;20040;-82
2023/01/03 10:50:02;;;;;;;27.33;13.20;;;7.70;99.90;;;;;;5017668;28;20026;-82
2023/01/03 10:52:33;;;;;;;;;;;7.70;99.90;;;;;;5034579;28;20025;-81
2023/01/03 10:55:01;;;;;;;22.53;12.47;;;7.70;99.90;;;;;;5035248;28;19909;-82
2023/01/03 10:57:40;;;;;;;20.60;12.53;;;7.70;99.90;;;;;;5017900;28;20017;-82
2023/01/03 11:00:32;;;;;;;20.83;11.57;;;7.80;99.90;;;;;;5018305;28;20029;-81
2023/01/03 11:03:18;;;;;;;21.07;12.17;;;7.80;99.90;;;;;;5033419;28;20204;-82
2023/01/03 11:05:47;;;;;;;20.13;11.97;;;7.80;99.90;;;;;;5033952;28;20064;-82
2023/01/03 11:08:20;;;;;;;21.37;11.33;;;7.80;99.90;;;;;;5033991;28;20021;-82
2023/01/03 11:10:48;;;;;;;22.27;11.40;;;7.90;99.90;;;;;;5033730;28;20397;-82
2023/01/03 11:13:23;;;;;;;22.00;10.67;;;8.00;99.90;;;;;;5033655;28;20390;-82
2023/01/03 11:15:54;;;;;;;23.00;10.97;;;8.00;99.90;;;;;;5033954;28;20025;-82
2023/01/03 11:18:20;;;;;;;19.30;9.97;;;8.00;99.90;;;;;;5034124;28;20025;-81
2023/01/03 11:21:13;;;;;;;22.30;11.30;;;8.00;99.90;;;;;;5033560;28;20501;-82
2023/01/03 11:23:42;;;;;;;19.13;10.60;;;8.10;99.90;;;;;;5033878;28;20394;-82
2023/01/03 11:26:39;;;;;;;21.50;10.43;;;8.10;99.90;;;;;;5033284;28;20120;-82
2023/01/03 11:29:17;;;;;;;19.37;10.70;;;8.10;99.90;;;;;;5026304;28;20037;-82
2023/01/03 11:31:42;;;;;;;23.13;10.97;;;8.10;99.90;;;;;;5033702;28;20049;-82
2023/01/03 11:34:29;;;;;;;19.00;10.57;;;8.20;99.90;;;;;;5033292;28;20041;-82
2023/01/03 11:37:20;;;;;;;22.10;10.97;;;8.20;99.90;;;;;;5033130;28;20025;-82
2023/01/03 11:40:16;;;;;;;16.23;9.50;;;8.20;99.90;;;;;;5033194;28;20025;-82
2023/01/03 11:43:15;;;;;;;20.50;9.73;;;8.20;99.90;;;;;;5034289;28;20358;-82
2023/01/03 11:45:45;;;;;;;20.13;10.30;;;8.20;99.90;;;;;;5033050;28;20079;-82
2023/01/03 11:48:32;;;;;;;21.10;9.83;;;8.20;99.90;;;;;;5033046;28;20382;-82
2023/01/03 11:51:27;;;;;;;17.47;9.30;;;8.20;99.90;;;;;;5032708;28;20029;-82
2023/01/03 11:54:06;;;;;;;20.47;9.93;;;8.20;99.90;;;;;;5032849;28;20624;-82
2023/01/03 11:56:39;;;;;;;30.40;10.93;;;8.20;99.90;;;;;;5033987;28;20024;-82
2023/01/03 11:59:11;;;;;;;13.90;8.60;;;8.20;99.90;;;;;;5032914;28;20143;-83
2023/01/03 12:02:17;;;;;;;19.43;9.60;;;8.30;99.90;;;;;;5033964;28;20111;-82
2023/01/03 12:04:43;;;;;;;19.30;10.27;;;8.30;99.90;;;;;;5032447;28;20060;-82
2023/01/03 12:07:11;;;;;;;16.43;8.57;;;8.30;99.90;;;;;;5032743;28;20473;-82
2023/01/03 12:09:46;;;;;;;16.13;7.80;;;8.30;99.90;;;;;;5032399;28;20038;-82
2023/01/03 12:12:33;;;;;;;14.13;8.80;;;8.40;99.90;;;;;;5032608;28;20065;-82
2023/01/03 12:15:10;;;;;;;18.13;8.77;;;8.40;99.90;;;;;;5032402;28;20025;-78
2023/01/03 12:17:57;;;;;;;18.70;8.50;;;8.40;99.90;;;;;;5032310;28;20071;-78
2023/01/03 12:20:36;;;;;;;14.33;7.13;;;8.40;99.90;;;;;;5032145;28;20079;-79
2023/01/03 12:23:30;;;;;;;14.63;7.23;;;8.50;99.90;;;;;;5033419;28;20029;-78
2023/01/03 12:25:59;;;;;;;11.77;7.30;;;8.50;99.90;;;;;;5032025;28;20028;-79
2023/01/03 12:28:38;;;;;;;13.83;7.33;;;8.40;99.90;;;;;;5032532;28;20032;-79
2023/01/03 12:31:26;;;;;;;12.50;6.50;;;8.50;99.90;;;;;;5032082;28;20477;-76
2023/01/03 12:34:01;;;;;;;14.67;7.33;;;8.60;99.90;;;;;;5034504;28;20025;-81
2023/01/03 12:36:36;;;;;;;12.43;6.40;;;8.60;99.90;;;;;;5036110;28;20036;-81
2023/01/03 12:39:21;;;;;;;14.77;6.83;;;8.60;99.90;;;;;;5033426;28;20017;-81
2023/01/03 12:42:03;;;;;;;13.73;5.87;;;8.60;99.90;;;;;;5032637;28;20093;-82
2023/01/03 12:45:08;;;;;;;14.47;6.40;;;8.60;99.90;;;;;;5033639;28;20057;-82
2023/01/03 12:47:45;;;;;;;14.27;6.50;;;8.70;99.90;;;;;;5032901;28;20075;-81
2023/01/03 12:50:25;;;;;;;14.67;7.20;;;8.80;99.90;;;;;;5036200;28;20037;-81
2023/01/03 12:53:09;;;;;;;17.93;7.93;;;8.80;99.90;;;;;;5035326;28;20030;-82
2023/01/03 12:56:12;;;;;;;14.73;8.10;;;8.80;99.90;;;;;;5034381;28;20490;-82
2023/01/03 12:59:04;;;;;;;13.13;7.20;;;8.80;99.90;;;;;;5037601;28;20071;-82
2023/01/03 13:01:52;;;;;;;13.43;7.80;;;8.90;99.90;;;;;;5036293;28;20026;-83
2023/01/03 13:04:20;;;;;;;14.07;7.03;;;8.90;99.90;;;;;;5036514;28;20044;-82
2023/01/03 13:06:50;;;;;;;13.40;7.33;;;8.90;99.90;;;;;;5032443;28;20080;-83
2023/01/03 13:09:30;;;;;;;11.43;6.73;;;9.00;99.90;;;;;;5031687;28;20014;-82
2023/01/03 13:12:04;;;;;;;16.23;7.27;;;9.00;99.90;;;;;;5032291;28;20033;-83
2023/01/03 13:15:02;;;;;;;12.40;7.72;;;9.00;99.90;;;;;;5032301;28;20022;-83
2023/01/03 13:17:30;;;;;;;14.83;7.30;;;9.00;99.90;;;;;;5031844;28;20029;-83
2023/01/03 13:19:57;;;;;;;15.70;8.27;;;9.10;99.90;;;;;;5032214;28;20026;-82
2023/01/03 13:22:32;;;;;;;16.67;8.37;;;9.10;99.90;;;;;;5031893;28;20040;-82
2023/01/03 13:25:29;;;;;;;16.00;7.77;;;9.10;99.90;;;;;;5031832;28;20080;-82
2023/01/03 13:28:02;;;;;;;16.03;6.80;;;9.10;99.90;;;;;;5035395;28;20025;-83
2023/01/03 13:30:35;;;;;;;18.00;7.50;;;9.10;99.90;;;;;;5035552;28;20037;-82
2023/01/03 13:33:05;;;;;;;14.57;7.30;;;9.10;99.90;;;;;;5035429;28;20053;-82
2023/01/03 13:35:50;;;;;;;11.63;5.63;;;9.10;99.90;;;;;;5035315;28;20079;-82
2023/01/03 13:38:36;;;;;;;11.27;5.37;;;9.10;99.90;;;;;;5036581;28;20021;-82
2023/01/03 13:41:26;;;;;;;8.83;4.87;;;9.10;99.90;;;;;;5018875;28;20099;-82
2023/01/03 13:43:53;;;;;;;10.90;4.33;;;9.10;99.90;;;;;;5036118;28;20512;-82
2023/01/03 13:46:31;;;;;;;11.80;3.93;;;9.10;99.90;;;;;;5034975;28;20079;-82
2023/01/03 13:48:59;;;;;;;9.03;3.50;;;9.20;99.90;;;;;;5034873;28;20071;-82
2023/01/03 13:51:39;;;;;;;7.77;3.20;;;9.20;99.90;;;;;;5036578;28;20028;-82
2023/01/03 13:54:11;;;;;;;8.67;3.67;;;9.20;99.90;;;;;;5034857;28;20394;-82
2023/01/03 13:56:43;;;;;;;11.57;3.63;;;9.30;99.90;;;;;;5034783;28;20477;-83
2023/01/03 13:59:17;;;;;;;9.43;3.00;;;9.40;99.90;;;;;;5036103;28;20025;-82
2023/01/03 14:01:57;;;;;;;10.00;3.43;;;9.50;99.90;;;;;;5034757;28;20025;-82
2023/01/03 14:04:47;;;;;;;7.37;2.87;;;9.70;99.90;;;;;;5034754;28;20029;-82
2023/01/03 14:07:43;;;;;;;9.27;3.27;;;9.70;99.90;;;;;;5034466;28;20063;-82